PWSweather.com
Personal Weather Stations
Station Observations
VAB41
Cheltenham Square, Virginia Beach, VA 23454

Cheltenham SquareVirginia Beach, VA 23454

Lat: 36.832882, Lon: -76.054038

Elevation: 12

Station Type: Ambient WS 2080

Latest ConditionsUpdated 5:10:00 AM EST Thursday, Jan 29, 2015
Currently Today's Max Today's Min Today's Average
Temperature 23.0°F-5.0°C 31.5°F-0.3°C 23.0°F-5.0°C 27.4°F-2.6°C
Dew Point 11.6°F-11.3°C 12.6°F-10.8°C 7.3°F-13.7°C 10.4°F-12.0°C
Winds Calm Calm 3.8 mph N6.1 kmh N - 0.5 mph 0.8 kmh
Wind Gusts -- 7.6 mph12.2 kmh - -
Humidity 61% 61% 39% 49%
Pressure 30.55 in1034.5 mb 30.57 in1035.2 mb 30.55 in1034.5 mb -
Hour Temp Dew Point Humidity Winds Wind Gusts Pressure Precip Precip Rate Daily Precip Total
05:10 AM 23.0°F-5.0°C 11.6°F-11.3°C 61% Calm Calm -- 30.55 in1034.5 mb 0.00 in0.0 mm 0.00 in/hr0.0 mm/hr 0.00 in0.0 mm
05:05 AM 23.0°F-5.0°C 11.6°F-11.3°C 61% Calm Calm -- 30.55 in1034.5 mb 0.00 in0.0 mm 0.00 in/hr0.0 mm/hr 0.00 in0.0 mm
05:00 AM 23.2°F-4.9°C 11.8°F-11.2°C 61% Calm Calm -- 30.55 in1034.5 mb 0.00 in0.0 mm 0.00 in/hr0.0 mm/hr 0.00 in0.0 mm
04:55 AM 23.4°F-4.8°C 11.9°F-11.2°C 61% Calm Calm -- 30.55 in1034.5 mb 0.00 in0.0 mm 0.00 in/hr0.0 mm/hr 0.00 in0.0 mm
04:50 AM 23.4°F-4.8°C 11.9°F-11.2°C 61% Calm Calm -- 30.56 in1034.9 mb 0.00 in0.0 mm 0.00 in/hr0.0 mm/hr 0.00 in0.0 mm
04:45 AM 23.5°F-4.7°C 12.1°F-11.1°C 61% Calm Calm -- 30.56 in1034.9 mb 0.00 in0.0 mm 0.00 in/hr0.0 mm/hr 0.00 in0.0 mm
04:40 AM 23.7°F-4.6°C 12.3°F-10.9°C 61% Calm Calm -- 30.56 in1034.9 mb 0.00 in0.0 mm 0.00 in/hr0.0 mm/hr 0.00 in0.0 mm
04:35 AM 23.7°F-4.6°C 12.3°F-10.9°C 61% Calm Calm -- 30.56 in1034.9 mb 0.00 in0.0 mm 0.00 in/hr0.0 mm/hr 0.00 in0.0 mm
04:30 AM 23.7°F-4.6°C 11.9°F-11.2°C 60% Calm Calm -- 30.56 in1034.9 mb 0.00 in0.0 mm 0.00 in/hr0.0 mm/hr 0.00 in0.0 mm
04:25 AM 23.7°F-4.6°C 12.3°F-10.9°C 61% Calm Calm -- 30.56 in1034.9 mb 0.00 in0.0 mm 0.00 in/hr0.0 mm/hr 0.00 in0.0 mm
04:20 AM 23.9°F-4.5°C 12.5°F-10.8°C 61% Calm Calm -- 30.56 in1034.9 mb 0.00 in0.0 mm 0.00 in/hr0.0 mm/hr 0.00 in0.0 mm
04:15 AM 24.1°F-4.4°C 12.6°F-10.8°C 61% Calm Calm -- 30.56 in1034.9 mb 0.00 in0.0 mm 0.00 in/hr0.0 mm/hr 0.00 in0.0 mm
04:10 AM 24.1°F-4.4°C 12.6°F-10.8°C 61% Calm Calm -- 30.56 in1034.9 mb 0.00 in0.0 mm 0.00 in/hr0.0 mm/hr 0.00 in0.0 mm
04:05 AM 24.1°F-4.4°C 12.3°F-10.9°C 60% Calm Calm -- 30.56 in1034.9 mb 0.00 in0.0 mm 0.00 in/hr0.0 mm/hr 0.00 in0.0 mm
04:00 AM 24.3°F-4.3°C 12.4°F-10.9°C 60% Calm Calm -- 30.56 in1034.9 mb 0.00 in0.0 mm 0.00 in/hr0.0 mm/hr 0.00 in0.0 mm
03:55 AM 24.3°F-4.3°C 12.0°F-11.1°C 59% Calm Calm -- 30.55 in1034.5 mb 0.00 in0.0 mm 0.00 in/hr0.0 mm/hr 0.00 in0.0 mm
03:50 AM 24.1°F-4.4°C 10.7°F-11.8°C 56% Calm Calm -- 30.55 in1034.5 mb 0.00 in0.0 mm 0.00 in/hr0.0 mm/hr 0.00 in0.0 mm
03:45 AM 24.1°F-4.4°C 10.7°F-11.8°C 56% Calm Calm -- 30.55 in1034.5 mb 0.00 in0.0 mm 0.00 in/hr0.0 mm/hr 0.00 in0.0 mm
03:40 AM 24.3°F-4.3°C 10.5°F-11.9°C 55% Calm Calm -- 30.56 in1034.9 mb 0.00 in0.0 mm 0.00 in/hr0.0 mm/hr 0.00 in0.0 mm
03:35 AM 24.3°F-4.3°C 10.1°F-12.2°C 54% Calm Calm -- 30.56 in1034.9 mb 0.00 in0.0 mm 0.00 in/hr0.0 mm/hr 0.00 in0.0 mm
03:30 AM 24.4°F-4.2°C 10.2°F-12.1°C 54% Calm Calm -- 30.56 in1034.9 mb 0.00 in0.0 mm 0.00 in/hr0.0 mm/hr 0.00 in0.0 mm
03:25 AM 24.6°F-4.1°C 10.0°F-12.2°C 53% Calm Calm -- 30.56 in1034.9 mb 0.00 in0.0 mm 0.00 in/hr0.0 mm/hr 0.00 in0.0 mm
03:20 AM 24.8°F-4.0°C 9.7°F-12.4°C 52% Calm Calm -- 30.56 in1034.9 mb 0.00 in0.0 mm 0.00 in/hr0.0 mm/hr 0.00 in0.0 mm
03:15 AM 25.2°F-3.8°C 10.1°F-12.2°C 52% Calm Calm -- 30.56 in1034.9 mb 0.00 in0.0 mm 0.00 in/hr0.0 mm/hr 0.00 in0.0 mm
03:10 AM 25.3°F-3.7°C 10.2°F-12.1°C 52% Calm Calm -- 30.56 in1034.9 mb 0.00 in0.0 mm 0.00 in/hr0.0 mm/hr 0.00 in0.0 mm
03:05 AM 25.5°F-3.6°C 10.4°F-12.0°C 52% Calm Calm -- 30.56 in1034.9 mb 0.00 in0.0 mm 0.00 in/hr0.0 mm/hr 0.00 in0.0 mm
03:00 AM 25.9°F-3.4°C 10.7°F-11.8°C 52% Calm Calm -- 30.56 in1034.9 mb 0.00 in0.0 mm 0.00 in/hr0.0 mm/hr 0.00 in0.0 mm
02:55 AM 26.1°F-3.3°C 10.0°F-12.2°C 50% Calm Calm -- 30.57 in1035.2 mb 0.00 in0.0 mm 0.00 in/hr0.0 mm/hr 0.00 in0.0 mm
02:50 AM 26.2°F-3.2°C 10.2°F-12.1°C 50% Calm Calm -- 30.56 in1034.9 mb 0.00 in0.0 mm 0.00 in/hr0.0 mm/hr 0.00 in0.0 mm
02:45 AM 26.6°F-3.0°C 9.6°F-12.4°C 48% Calm Calm -- 30.56 in1034.9 mb 0.00 in0.0 mm 0.00 in/hr0.0 mm/hr 0.00 in0.0 mm
02:40 AM 26.8°F-2.9°C 9.3°F-12.6°C 47% Calm Calm -- 30.56 in1034.9 mb 0.00 in0.0 mm 0.00 in/hr0.0 mm/hr 0.00 in0.0 mm
02:35 AM 27.1°F-2.7°C 8.7°F-12.9°C 45% Calm Calm -- 30.56 in1034.9 mb 0.00 in0.0 mm 0.00 in/hr0.0 mm/hr 0.00 in0.0 mm
02:30 AM 27.3°F-2.6°C 7.8°F-13.4°C 43% Calm Calm 1.6 mph2.6 kmh 30.55 in1034.5 mb 0.00 in0.0 mm 0.00 in/hr0.0 mm/hr 0.00 in0.0 mm
02:25 AM 27.9°F-2.3°C 7.3°F-13.7°C 41% Calm Calm 1.6 mph2.6 kmh 30.56 in1034.9 mb 0.00 in0.0 mm 0.00 in/hr0.0 mm/hr 0.00 in0.0 mm
02:20 AM 28.6°F-1.9°C 9.5°F-12.5°C 44% Calm Calm 1.6 mph2.6 kmh 30.56 in1034.9 mb 0.00 in0.0 mm 0.00 in/hr0.0 mm/hr 0.00 in0.0 mm
02:15 AM 28.9°F-1.7°C 9.8°F-12.3°C 44% Calm Calm 3.1 mph5.0 kmh 30.56 in1034.9 mb 0.00 in0.0 mm 0.00 in/hr0.0 mm/hr 0.00 in0.0 mm
02:10 AM 29.1°F-1.6°C 9.5°F-12.5°C 43% Calm Calm 3.1 mph5.0 kmh 30.56 in1034.9 mb 0.00 in0.0 mm 0.00 in/hr0.0 mm/hr 0.00 in0.0 mm
02:05 AM 29.5°F-1.4°C 9.8°F-12.3°C 43% 0.7 mph NNW1.1 kmh NNW 6.0 mph9.7 kmh 30.56 in1034.9 mb 0.00 in0.0 mm 0.00 in/hr0.0 mm/hr 0.00 in0.0 mm
02:00 AM 29.8°F-1.2°C 9.6°F-12.4°C 42% 0.7 mph NNW1.1 kmh NNW 6.0 mph9.7 kmh 30.56 in1034.9 mb 0.00 in0.0 mm 0.00 in/hr0.0 mm/hr 0.00 in0.0 mm
01:55 AM 30.0°F-1.1°C 9.8°F-12.3°C 42% Calm Calm 3.1 mph5.0 kmh 30.56 in1034.9 mb 0.00 in0.0 mm 0.00 in/hr0.0 mm/hr 0.00 in0.0 mm
01:50 AM 30.2°F-1.0°C 9.4°F-12.6°C 41% 1.6 mph NW2.6 kmh NW 3.8 mph6.1 kmh 30.56 in1034.9 mb 0.00 in0.0 mm 0.00 in/hr0.0 mm/hr 0.00 in0.0 mm
01:45 AM 30.6°F-0.8°C 9.7°F-12.4°C 41% Calm Calm 3.8 mph6.1 kmh 30.56 in1034.9 mb 0.00 in0.0 mm 0.00 in/hr0.0 mm/hr 0.00 in0.0 mm
01:40 AM 30.7°F-0.7°C 9.9°F-12.3°C 41% 2.2 mph NNW3.5 kmh NNW 5.4 mph8.7 kmh 30.56 in1034.9 mb 0.00 in0.0 mm 0.00 in/hr0.0 mm/hr 0.00 in0.0 mm
01:35 AM 30.7°F-0.7°C 9.9°F-12.3°C 41% 3.8 mph N6.1 kmh N 5.4 mph8.7 kmh 30.56 in1034.9 mb 0.00 in0.0 mm 0.00 in/hr0.0 mm/hr 0.00 in0.0 mm
01:30 AM 30.7°F-0.7°C 9.9°F-12.3°C 41% 0.7 mph NNW1.1 kmh NNW 4.5 mph7.2 kmh 30.56 in1034.9 mb 0.00 in0.0 mm 0.00 in/hr0.0 mm/hr 0.00 in0.0 mm
01:25 AM 30.7°F-0.7°C 9.9°F-12.3°C 41% 0.7 mph NNW1.1 kmh NNW 6.0 mph9.7 kmh 30.56 in1034.9 mb 0.00 in0.0 mm 0.00 in/hr0.0 mm/hr 0.00 in0.0 mm
01:20 AM 30.6°F-0.8°C 9.7°F-12.4°C 41% 1.6 mph NNW2.6 kmh NNW 6.0 mph9.7 kmh 30.56 in1034.9 mb 0.00 in0.0 mm 0.00 in/hr0.0 mm/hr 0.00 in0.0 mm
01:15 AM 30.7°F-0.7°C 9.9°F-12.3°C 41% 3.8 mph N6.1 kmh N 6.0 mph9.7 kmh 30.55 in1034.5 mb 0.00 in0.0 mm 0.00 in/hr0.0 mm/hr 0.00 in0.0 mm
01:10 AM 30.6°F-0.8°C 9.7°F-12.4°C 41% 0.7 mph NNW1.1 kmh NNW 6.0 mph9.7 kmh 30.55 in1034.5 mb 0.00 in0.0 mm 0.00 in/hr0.0 mm/hr 0.00 in0.0 mm
01:05 AM 30.6°F-0.8°C 9.7°F-12.4°C 41% 0.7 mph NNW1.1 kmh NNW 5.4 mph8.7 kmh 30.55 in1034.5 mb 0.00 in0.0 mm 0.00 in/hr0.0 mm/hr 0.00 in0.0 mm
01:00 AM 30.9°F-0.6°C 10.0°F-12.2°C 41% 0.7 mph N1.1 kmh N 5.4 mph8.7 kmh 30.55 in1034.5 mb 0.00 in0.0 mm 0.00 in/hr0.0 mm/hr 0.00 in0.0 mm
12:55 AM 30.7°F-0.7°C 9.9°F-12.3°C 41% 0.7 mph NNW1.1 kmh NNW 5.4 mph8.7 kmh 30.55 in1034.5 mb 0.00 in0.0 mm 0.00 in/hr0.0 mm/hr 0.00 in0.0 mm
12:50 AM 30.7°F-0.7°C 9.9°F-12.3°C 41% 1.6 mph NW2.6 kmh NW 6.0 mph9.7 kmh 30.55 in1034.5 mb 0.00 in0.0 mm 0.00 in/hr0.0 mm/hr 0.00 in0.0 mm
12:45 AM 30.9°F-0.6°C 10.0°F-12.2°C 41% Calm Calm 6.9 mph11.1 kmh 30.55 in1034.5 mb 0.00 in0.0 mm 0.00 in/hr0.0 mm/hr 0.00 in0.0 mm
12:40 AM 30.9°F-0.6°C 10.0°F-12.2°C 41% 1.6 mph N2.6 kmh N 6.9 mph11.1 kmh 30.55 in1034.5 mb 0.00 in0.0 mm 0.00 in/hr0.0 mm/hr 0.00 in0.0 mm
12:35 AM 31.1°F-0.5°C 10.2°F-12.1°C 41% 0.7 mph N1.1 kmh N 7.6 mph12.2 kmh 30.55 in1034.5 mb 0.00 in0.0 mm 0.00 in/hr0.0 mm/hr 0.00 in0.0 mm
12:30 AM 31.3°F-0.4°C 10.4°F-12.0°C 41% Calm Calm 7.6 mph12.2 kmh 30.55 in1034.5 mb 0.00 in0.0 mm 0.00 in/hr0.0 mm/hr 0.00 in0.0 mm
12:25 AM 31.1°F-0.5°C 10.2°F-12.1°C 41% 1.6 mph NW2.6 kmh NW 7.6 mph12.2 kmh 30.55 in1034.5 mb 0.00 in0.0 mm 0.00 in/hr0.0 mm/hr 0.00 in0.0 mm
12:20 AM 31.1°F-0.5°C 9.1°F-12.7°C 39% 1.6 mph NNW2.6 kmh NNW 5.4 mph8.7 kmh 30.55 in1034.5 mb 0.00 in0.0 mm 0.00 in/hr0.0 mm/hr 0.00 in0.0 mm
12:15 AM 31.5°F-0.3°C 9.4°F-12.6°C 39% 0.7 mph N1.1 kmh N 7.6 mph12.2 kmh 30.55 in1034.5 mb 0.00 in0.0 mm 0.00 in/hr0.0 mm/hr 0.00 in0.0 mm
12:10 AM 31.5°F-0.3°C 9.4°F-12.6°C 39% 1.6 mph N2.6 kmh N 7.6 mph12.2 kmh 30.55 in1034.5 mb 0.00 in0.0 mm 0.00 in/hr0.0 mm/hr 0.00 in0.0 mm
12:05 AM 31.3°F-0.4°C 9.2°F-12.7°C 39% 3.8 mph N6.1 kmh N 6.0 mph9.7 kmh 30.55 in1034.5 mb 0.00 in0.0 mm 0.00 in/hr0.0 mm/hr 0.00 in0.0 mm
12:00 AM 31.5°F-0.3°C 9.4°F-12.6°C 39% 0.7 mph N1.1 kmh N 5.4 mph8.7 kmh 30.55 in1034.5 mb 0.00 in0.0 mm 0.00 in/hr0.0 mm/hr 0.00 in0.0 mm